Time;durP1;ratioP1;P1;durP2;ratioP2;P2;SDS_P1;SDS_P2;PMS_P1;PMS_P2;Temp;Humidity;BMP_temperature;BMP_pressure;BME280_temperature;BME280_humidity;BME280_pressure;Samples;Min_cycle;Max_cycle;Signal;HPM_P1;HPM_P2
2022/07/28 00:02:01;;;;;;;3.55;1.30;;;11.80;1.00;;;;;;5016816;28;20232;-81
2022/07/28 00:04:26;;;;;;;1.58;1.17;;;12.80;1.00;;;;;;5009346;28;20572;-82
2022/07/28 00:06:52;;;;;;;2.05;1.10;;;11.90;1.00;;;;;;5008004;28;20203;-82
2022/07/28 00:09:18;;;;;;;3.47;1.30;;;11.90;1.00;;;;;;5008595;28;20233;-83
2022/07/28 00:11:43;;;;;;;4.32;1.60;;;11.90;1.00;;;;;;5009453;28;20322;-82
2022/07/28 00:14:09;;;;;;;3.87;1.67;;;11.80;1.00;;;;;;5009873;28;20187;-82
2022/07/28 00:16:35;;;;;;;2.53;1.20;;;11.80;1.00;;;;;;5011098;28;20280;-81
2022/07/28 00:19:01;;;;;;;3.78;1.20;;;11.80;1.00;;;;;;5008826;28;20183;-81
2022/07/28 00:21:27;;;;;;;3.05;1.05;;;12.10;1.00;;;;;;5009301;28;20582;-82
2022/07/28 00:23:52;;;;;;;2.80;1.27;;;11.80;1.00;;;;;;5008835;28;20342;-82
2022/07/28 00:26:18;;;;;;;3.10;1.53;;;11.60;1.00;;;;;;5009627;28;20535;-82
2022/07/28 00:28:43;;;;;;;3.00;1.17;;;11.50;1.00;;;;;;5017374;28;20188;-83
2022/07/28 00:31:09;;;;;;;3.90;1.30;;;11.30;1.00;;;;;;5009065;28;20218;-83
2022/07/28 00:33:35;;;;;;;1.80;1.13;;;11.30;1.00;;;;;;5009970;28;20195;-82
2022/07/28 00:36:00;;;;;;;3.33;1.47;;;11.20;1.00;;;;;;5009955;28;20242;-81
2022/07/28 00:38:26;;;;;;;3.30;1.20;;;11.20;2.00;;;;;;5008724;28;20183;-82
2022/07/28 00:41:09;;;;;;;2.57;1.27;;;11.20;10.70;;;;;;5009938;28;20204;-85
2022/07/28 00:43:36;;;;;;;2.20;1.20;;;12.40;7.50;;;;;;5007941;28;20180;-83
2022/07/28 00:46:02;;;;;;;2.30;1.40;;;11.10;1.60;;;;;;5009067;28;20223;-82
2022/07/28 00:48:28;;;;;;;2.20;1.40;;;11.10;4.30;;;;;;5010250;28;20190;-82
2022/07/28 00:50:54;;;;;;;2.53;1.10;;;11.00;6.40;;;;;;5008155;28;20215;-82
2022/07/28 00:53:20;;;;;;;3.67;1.73;;;11.10;13.50;;;;;;5010328;28;20195;-82
2022/07/28 00:55:46;;;;;;;3.50;1.10;;;11.00;9.90;;;;;;5008713;28;20203;-82
2022/07/28 00:58:11;;;;;;;4.15;1.20;;;11.40;13.40;;;;;;5009298;28;20189;-81
2022/07/28 01:00:37;;;;;;;2.03;1.37;;;12.40;18.60;;;;;;5008958;28;20299;-82
2022/07/28 01:03:05;;;;;;;2.60;1.30;;;11.00;20.00;;;;;;5008639;28;20800;-83
2022/07/28 01:05:43;;;;;;;1.33;1.08;;;11.10;22.90;;;;;;5009653;28;20187;-83
2022/07/28 01:08:22;;;;;;;5.00;1.50;;;11.20;21.50;;;;;;5008662;28;20179;-82
2022/07/28 01:11:24;;;;;;;1.20;0.97;;;11.20;17.70;;;;;;5018649;28;20237;-82
2022/07/28 01:14:28;;;;;;;5.47;1.30;;;11.20;17.30;;;;;;5007086;28;20214;-83
2022/07/28 01:17:38;;;;;;;2.43;1.33;;;11.10;20.70;;;;;;5012141;28;20223;-82
2022/07/28 01:20:53;;;;;;;2.13;1.17;;;11.20;12.00;;;;;;5016440;28;20268;-82
2022/07/28 01:23:30;;;;;;;1.33;1.07;;;11.20;1.00;;;;;;4959383;28;20244;-82
2022/07/28 01:26:24;;;;;;;2.43;1.50;;;11.00;1.00;;;;;;5005620;28;20199;-81
2022/07/28 01:28:57;;;;;;;1.50;1.10;;;11.10;1.00;;;;;;5015618;28;20777;-83
2022/07/28 01:31:26;;;;;;;2.67;1.03;;;11.00;1.00;;;;;;5008060;28;20235;-81
2022/07/28 01:33:58;;;;;;;2.13;1.23;;;10.80;1.00;;;;;;5007491;28;20214;-82
2022/07/28 01:36:40;;;;;;;3.03;1.37;;;10.70;1.00;;;;;;5009225;28;20199;-81
2022/07/28 01:39:06;;;;;;;4.57;1.30;;;10.50;1.00;;;;;;5008249;28;20172;-82
2022/07/28 01:41:33;;;;;;;2.87;1.27;;;10.50;1.00;;;;;;5009343;28;20257;-82
2022/07/28 01:44:03;;;;;;;1.97;1.30;;;10.30;1.00;;;;;;5012562;28;20324;-82
2022/07/28 01:46:30;;;;;;;1.97;1.20;;;10.10;1.00;;;;;;5013008;28;20184;-83
2022/07/28 01:48:57;;;;;;;2.33;1.33;;;10.10;17.50;;;;;;5014887;28;20188;-83
2022/07/28 01:51:25;;;;;;;1.47;1.20;;;10.00;15.80;;;;;;5022399;28;20277;-82
2022/07/28 01:53:52;;;;;;;4.73;1.43;;;11.30;34.40;;;;;;5019692;28;20193;-84
2022/07/28 01:56:20;;;;;;;3.87;1.43;;;10.20;24.70;;;;;;5022112;28;20234;-84
2022/07/28 01:58:47;;;;;;;2.13;1.20;;;9.90;22.40;;;;;;5018718;28;20187;-81
2022/07/28 02:01:15;;;;;;;3.03;1.27;;;9.90;20.60;;;;;;5026930;28;20211;-82
2022/07/28 02:03:44;;;;;;;4.57;1.40;;;9.90;29.50;;;;;;5020408;28;20194;-84
2022/07/28 02:06:12;;;;;;;2.60;1.20;;;10.20;29.40;;;;;;5027682;28;20183;-82
2022/07/28 02:08:39;;;;;;;4.30;1.70;;;9.70;51.70;;;;;;5028033;28;20574;-82
2022/07/28 02:13:50;;;;;;;4.20;1.73;;;9.60;49.60;;;;;;5019593;28;20234;-81
2022/07/28 02:16:21;;;;;;;2.90;1.47;;;10.30;49.10;;;;;;5019207;28;20625;-83
2022/07/28 02:18:49;;;;;;;2.23;1.57;;;9.60;44.70;;;;;;5020369;28;20180;-83
2022/07/28 02:21:16;;;;;;;1.57;1.03;;;10.50;42.30;;;;;;5018793;28;20204;-84
2022/07/28 02:23:44;;;;;;;3.30;1.47;;;9.60;33.30;;;;;;5018198;28;20238;-83
2022/07/28 02:26:12;;;;;;;2.97;1.20;;;9.70;46.70;;;;;;5019086;28;20180;-84
2022/07/28 02:28:42;;;;;;;4.33;1.40;;;9.50;43.50;;;;;;5020259;28;20180;-83
2022/07/28 02:31:23;;;;;;;3.90;1.40;;;10.30;45.50;;;;;;5019067;28;20199;-84
2022/07/28 02:33:52;;;;;;;4.23;1.30;;;9.60;47.50;;;;;;5025206;28;20199;-85
2022/07/28 02:36:27;;;;;;;5.47;1.30;;;11.00;54.20;;;;;;5028239;28;20847;-84
2022/07/28 02:38:55;;;;;;;3.40;1.23;;;11.10;59.80;;;;;;5016968;28;20183;-84
2022/07/28 02:41:26;;;;;;;5.60;1.63;;;9.60;25.50;;;;;;5017692;28;20229;-85
2022/07/28 02:43:56;;;;;;;3.33;1.40;;;10.30;32.90;;;;;;5018355;28;20218;-84
2022/07/28 02:46:28;;;;;;;3.53;1.70;;;10.60;30.40;;;;;;5026225;28;20247;-84
2022/07/28 02:49:05;;;;;;;4.03;1.50;;;10.40;15.70;;;;;;5019684;28;20187;-83
2022/07/28 02:51:33;;;;;;;2.40;1.10;;;9.30;28.60;;;;;;5019077;28;20266;-84
2022/07/28 02:54:02;;;;;;;3.00;1.30;;;9.30;30.00;;;;;;5017649;28;20234;-85
2022/07/28 02:56:28;;;;;;;4.13;1.20;;;9.20;32.50;;;;;;5018777;28;20227;-84
2022/07/28 02:58:56;;;;;;;1.97;1.30;;;9.20;51.60;;;;;;5019396;28;20188;-82
2022/07/28 03:01:22;;;;;;;1.87;1.20;;;9.10;52.60;;;;;;5018619;28;20210;-84
2022/07/28 03:03:49;;;;;;;2.33;1.70;;;9.10;69.80;;;;;;5018446;28;20187;-84
2022/07/28 03:06:19;;;;;;;2.37;1.30;;;9.70;65.00;;;;;;5019180;28;20191;-84
2022/07/28 03:08:44;;;;;;;3.90;1.50;;;9.10;62.70;;;;;;5023921;28;20218;-83
2022/07/28 03:11:12;;;;;;;1.83;1.43;;;9.30;78.20;;;;;;5017844;28;20267;-84
2022/07/28 03:13:37;;;;;;;2.63;1.47;;;9.20;57.50;;;;;;5017971;28;20226;-82
2022/07/28 03:16:05;;;;;;;2.03;1.10;;;9.50;68.80;;;;;;5026109;28;20263;-84
2022/07/28 03:18:30;;;;;;;2.40;1.40;;;9.10;67.20;;;;;;5017203;28;20195;-84
2022/07/28 03:20:57;;;;;;;2.23;1.30;;;9.20;89.80;;;;;;5017885;28;20211;-82
2022/07/28 03:23:31;;;;;;;2.73;1.40;;;9.10;65.20;;;;;;5017143;28;20257;-85
2022/07/28 03:26:03;;;;;;;3.70;1.80;;;9.20;81.40;;;;;;5018215;28;20230;-82
2022/07/28 03:28:29;;;;;;;2.53;1.60;;;10.00;87.50;;;;;;5027577;28;20183;-83
2022/07/28 03:31:00;;;;;;;2.80;1.40;;;9.00;69.90;;;;;;5017779;28;20271;-83
2022/07/28 03:33:27;;;;;;;2.80;1.50;;;9.90;88.60;;;;;;5025786;28;20225;-82
2022/07/28 03:35:55;;;;;;;2.67;1.30;;;8.80;91.50;;;;;;5017514;28;20229;-84
2022/07/28 03:38:39;;;;;;;3.93;1.50;;;8.90;93.60;;;;;;5025301;28;20214;-85
2022/07/28 03:41:07;;;;;;;1.30;1.07;;;8.80;80.60;;;;;;5025495;28;20285;-83
2022/07/28 03:43:33;;;;;;;2.20;1.23;;;8.90;91.00;;;;;;5016744;28;20183;-83
2022/07/28 03:45:59;;;;;;;3.83;1.57;;;9.10;96.70;;;;;;5026232;28;20211;-82
2022/07/28 03:48:29;;;;;;;2.43;1.27;;;10.20;76.20;;;;;;5024725;28;20191;-84
2022/07/28 03:50:55;;;;;;;5.23;1.57;;;8.90;75.00;;;;;;5016741;28;20237;-83
2022/07/28 03:53:23;;;;;;;3.10;1.30;;;8.80;74.60;;;;;;5016860;28;20188;-83
2022/07/28 03:55:49;;;;;;;4.13;1.40;;;9.10;92.30;;;;;;5017426;28;20230;-82
2022/07/28 03:58:19;;;;;;;2.10;1.17;;;9.50;97.30;;;;;;5026168;28;20207;-84
2022/07/28 04:00:46;;;;;;;2.63;1.10;;;9.00;92.60;;;;;;5015361;28;20226;-85
2022/07/28 04:03:12;;;;;;;1.33;1.20;;;9.20;75.40;;;;;;5016305;28;20684;-84
2022/07/28 04:05:38;;;;;;;3.50;1.50;;;9.20;58.60;;;;;;5017005;28;20183;-83
2022/07/28 04:08:04;;;;;;;3.13;1.40;;;9.40;60.10;;;;;;5016081;28;20198;-84
2022/07/28 04:10:30;;;;;;;2.10;1.50;;;9.30;60.00;;;;;;5016752;28;20183;-83
2022/07/28 04:12:56;;;;;;;2.80;1.80;;;9.20;86.20;;;;;;5015863;28;20242;-82
2022/07/28 04:15:24;;;;;;;5.07;1.50;;;9.20;97.70;;;;;;5016670;28;20215;-83
2022/07/28 04:17:51;;;;;;;3.90;1.70;;;9.40;99.90;;;;;;5023890;28;20180;-84
2022/07/28 04:20:18;;;;;;;3.17;1.60;;;9.60;87.40;;;;;;5022886;28;20191;-83
2022/07/28 04:22:45;;;;;;;3.03;1.70;;;9.90;75.20;;;;;;5015531;28;20208;-85
2022/07/28 04:25:13;;;;;;;2.17;1.40;;;11.10;70.10;;;;;;5016361;28;20184;-84
2022/07/28 04:27:40;;;;;;;3.70;1.63;;;10.30;50.70;;;;;;5017159;28;20643;-83
2022/07/28 04:30:12;;;;;;;3.47;1.90;;;10.30;50.20;;;;;;5016489;28;20247;-84
2022/07/28 04:32:38;;;;;;;6.00;1.97;;;10.40;58.30;;;;;;5024082;28;20204;-84
2022/07/28 04:35:05;;;;;;;3.23;1.83;;;11.10;48.80;;;;;;5017109;28;20207;-82
2022/07/28 04:37:31;;;;;;;3.13;1.70;;;10.30;81.20;;;;;;5022831;28;20219;-84
2022/07/28 04:39:56;;;;;;;4.13;1.70;;;10.40;79.80;;;;;;5015102;28;20191;-85
2022/07/28 04:42:22;;;;;;;2.30;1.40;;;10.50;69.40;;;;;;5016420;28;20214;-83
2022/07/28 04:44:47;;;;;;;2.63;1.70;;;11.80;49.20;;;;;;5025648;28;20176;-82
2022/07/28 04:47:15;;;;;;;2.53;1.77;;;10.80;56.20;;;;;;5016572;28;20183;-84
2022/07/28 04:49:41;;;;;;;4.07;1.60;;;10.50;45.00;;;;;;5015562;28;20175;-83
2022/07/28 04:52:09;;;;;;;4.13;2.00;;;10.80;49.30;;;;;;5016321;28;20233;-83
2022/07/28 04:54:35;;;;;;;2.77;1.57;;;10.90;40.40;;;;;;5018639;28;20176;-84
2022/07/28 04:57:01;;;;;;;3.83;1.90;;;10.80;57.70;;;;;;5015854;28;20225;-84
2022/07/28 04:59:27;;;;;;;3.43;1.80;;;12.00;59.60;;;;;;5016989;28;20253;-84
2022/07/28 05:01:52;;;;;;;2.50;1.50;;;10.90;51.90;;;;;;5017519;28;20203;-83
2022/07/28 05:04:18;;;;;;;2.30;1.47;;;11.00;48.30;;;;;;5015925;28;20191;-83
2022/07/28 05:06:44;;;;;;;2.77;1.60;;;11.30;19.00;;;;;;5016098;28;20191;-82
2022/07/28 05:09:09;;;;;;;5.13;1.40;;;11.40;9.70;;;;;;5015380;28;20198;-84
2022/07/28 05:11:35;;;;;;;2.78;1.60;;;11.60;1.00;;;;;;5015746;28;20234;-82
2022/07/28 05:14:00;;;;;;;2.95;1.30;;;11.90;1.00;;;;;;5023095;28;20196;-82
2022/07/28 05:16:26;;;;;;;1.80;1.30;;;12.30;1.00;;;;;;5015451;28;20211;-83
2022/07/28 05:18:52;;;;;;;2.58;1.30;;;12.30;1.00;;;;;;5019438;28;20176;-83
2022/07/28 05:21:17;;;;;;;2.70;1.30;;;12.90;1.00;;;;;;5019526;28;20231;-83
2022/07/28 05:23:43;;;;;;;3.20;1.38;;;12.90;1.00;;;;;;5018831;28;20172;-83
2022/07/28 05:26:08;;;;;;;3.05;1.33;;;13.10;1.00;;;;;;5020736;28;20184;-84
2022/07/28 05:28:34;;;;;;;2.60;1.40;;;12.90;1.00;;;;;;5018433;28;20270;-82
2022/07/28 05:31:00;;;;;;;4.75;1.70;;;13.20;1.00;;;;;;5018987;28;21005;-82
2022/07/28 05:33:25;;;;;;;4.05;1.40;;;14.10;1.00;;;;;;5020124;28;20863;-83
2022/07/28 05:35:56;;;;;;;6.00;1.58;;;13.30;1.00;;;;;;5020476;28;20226;-84
2022/07/28 05:38:22;;;;;;;5.82;1.25;;;14.60;1.00;;;;;;5019272;28;20186;-83
2022/07/28 05:40:48;;;;;;;4.13;1.30;;;14.80;1.00;;;;;;5019802;28;20183;-83
2022/07/28 05:43:13;;;;;;;2.45;1.15;;;14.80;1.00;;;;;;5018995;28;20187;-83
2022/07/28 05:45:39;;;;;;;5.50;1.52;;;14.40;1.00;;;;;;5020459;28;20187;-83
2022/07/28 05:48:05;;;;;;;2.58;1.10;;;14.60;99.90;;;;;;5019879;28;20666;-82
2022/07/28 05:50:31;;;;;;;4.68;1.27;;;14.90;99.90;;;;;;5027509;28;20191;-82
2022/07/28 05:52:56;;;;;;;2.00;1.10;;;15.20;99.90;;;;;;5020467;28;20199;-83
2022/07/28 05:55:22;;;;;;;3.22;0.85;;;15.50;1.00;;;;;;5020739;28;20202;-83
2022/07/28 05:57:47;;;;;;;2.33;1.05;;;16.70;1.00;;;;;;5020496;28;20192;-83
2022/07/28 06:00:15;;;;;;;2.10;1.13;;;16.00;1.00;;;;;;5019675;28;20197;-82
2022/07/28 06:02:47;;;;;;;3.95;1.40;;;15.90;99.90;;;;;;5018501;28;20199;-83
2022/07/28 06:05:16;;;;;;;2.08;0.95;;;16.30;1.00;;;;;;5018121;28;20176;-82
2022/07/28 06:07:42;;;;;;;2.60;1.27;;;16.10;1.00;;;;;;5017274;28;20206;-83
2022/07/28 06:10:08;;;;;;;3.63;1.15;;;16.80;99.90;;;;;;5019660;28;20182;-83
2022/07/28 06:12:45;;;;;;;4.10;1.20;;;16.00;1.00;;;;;;5016754;28;20200;-85
2022/07/28 06:15:13;;;;;;;4.47;1.10;;;16.10;1.00;;;;;;5017323;28;20205;-84
2022/07/28 06:17:39;;;;;;;1.90;0.90;;;16.20;1.00;;;;;;5017458;28;20183;-84
2022/07/28 06:20:05;;;;;;;3.53;1.08;;;16.40;99.90;;;;;;5013056;28;20230;-83
2022/07/28 06:22:41;;;;;;;6.07;1.38;;;16.80;1.00;;;;;;5017268;28;20265;-84
2022/07/28 06:25:10;;;;;;;2.05;1.15;;;16.60;99.90;;;;;;5017003;28;20172;-83
2022/07/28 06:27:36;;;;;;;7.10;1.63;;;16.20;1.00;;;;;;5016530;28;20184;-85
2022/07/28 06:30:01;;;;;;;3.78;1.20;;;16.20;99.90;;;;;;5017673;28;20355;-83
2022/07/28 06:32:27;;;;;;;3.65;1.27;;;17.30;99.90;;;;;;5016612;28;20206;-83
2022/07/28 06:34:52;;;;;;;3.63;1.10;;;17.10;1.00;;;;;;5015694;28;20748;-85
2022/07/28 06:37:18;;;;;;;2.60;1.17;;;17.00;1.00;;;;;;5015939;28;20206;-83
2022/07/28 06:39:43;;;;;;;4.05;1.20;;;17.10;99.90;;;;;;5019002;28;20179;-83
2022/07/28 06:42:10;;;;;;;2.10;1.17;;;17.60;99.90;;;;;;5013945;28;20203;-82
2022/07/28 06:44:35;;;;;;;5.78;1.23;;;17.50;1.00;;;;;;5010675;28;20176;-81
2022/07/28 06:47:01;;;;;;;3.35;1.20;;;17.90;99.90;;;;;;5008470;28;20553;-81
2022/07/28 06:49:26;;;;;;;2.70;1.05;;;18.20;1.00;;;;;;5010911;28;20190;-80
2022/07/28 06:51:52;;;;;;;2.40;1.10;;;18.10;1.00;;;;;;5010268;28;20242;-83
2022/07/28 06:54:17;;;;;;;2.67;1.08;;;18.20;65.90;;;;;;5012503;28;20187;-81
2022/07/28 06:56:43;;;;;;;4.68;0.95;;;18.40;1.00;;;;;;5006479;28;20279;-81
2022/07/28 06:59:08;;;;;;;4.43;1.25;;;18.60;1.00;;;;;;5008761;28;20723;-81
2022/07/28 07:01:34;;;;;;;3.58;1.10;;;18.90;99.90;;;;;;5008660;28;20692;-81
2022/07/28 07:03:59;;;;;;;1.63;0.68;;;19.40;99.90;;;;;;5006827;28;20602;-83
2022/07/28 07:06:25;;;;;;;2.85;1.05;;;19.20;1.00;;;;;;5007445;28;20202;-81
2022/07/28 07:08:51;;;;;;;2.53;0.63;;;19.90;1.00;;;;;;5008208;28;20187;-81
2022/07/28 07:11:16;;;;;;;1.77;0.90;;;20.40;1.00;;;;;;5008248;28;20282;-81
2022/07/28 07:13:42;;;;;;;2.08;0.93;;;20.80;99.90;;;;;;5007635;28;20211;-81
2022/07/28 07:16:07;;;;;;;3.53;1.00;;;21.70;99.90;;;;;;5007757;28;20243;-81
2022/07/28 07:18:33;;;;;;;2.85;0.90;;;21.20;1.00;;;;;;5007088;28;20187;-81
2022/07/28 07:20:58;;;;;;;3.17;1.10;;;21.30;1.00;;;;;;5007312;28;20609;-81
2022/07/28 07:23:24;;;;;;;1.92;1.00;;;20.90;1.00;;;;;;5007171;28;20628;-81
2022/07/28 07:25:50;;;;;;;3.83;1.17;;;20.60;1.00;;;;;;5007539;28;20244;-81
2022/07/28 07:28:15;;;;;;;2.85;1.08;;;20.40;1.00;;;;;;5006287;28;20237;-82
2022/07/28 07:30:41;;;;;;;1.98;0.88;;;20.50;1.00;;;;;;5008037;28;20176;-81
2022/07/28 07:33:06;;;;;;;3.10;0.90;;;19.70;1.00;;;;;;5008463;28;20195;-80
2022/07/28 07:35:33;;;;;;;3.53;0.90;;;19.10;1.00;;;;;;5007664;28;20183;-80
2022/07/28 07:37:58;;;;;;;2.30;1.00;;;18.70;99.90;;;;;;5007117;28;20213;-81
2022/07/28 07:40:24;;;;;;;2.20;0.82;;;18.30;99.90;;;;;;5008045;28;20188;-80
2022/07/28 07:42:49;;;;;;;3.05;1.05;;;18.60;1.00;;;;;;5006155;28;20207;-82
2022/07/28 07:45:15;;;;;;;2.95;1.00;;;18.30;1.00;;;;;;5006283;28;20175;-81
2022/07/28 07:47:40;;;;;;;4.50;0.90;;;18.20;1.00;;;;;;5004492;28;20185;-81
2022/07/28 07:50:06;;;;;;;2.45;1.10;;;17.50;1.00;;;;;;5006235;28;20263;-81
2022/07/28 07:52:32;;;;;;;2.72;0.93;;;17.60;99.90;;;;;;5007090;28;20215;-82
2022/07/28 07:54:57;;;;;;;1.85;0.70;;;17.80;99.90;;;;;;5008901;28;20191;-81
2022/07/28 07:57:23;;;;;;;2.78;1.05;;;17.90;1.00;;;;;;5008709;28;20681;-78
2022/07/28 07:59:49;;;;;;;3.58;1.00;;;17.90;1.00;;;;;;5009690;28;20273;-80
2022/07/28 08:02:14;;;;;;;4.82;1.08;;;18.20;1.00;;;;;;5008417;28;20223;-80
2022/07/28 08:04:40;;;;;;;4.80;1.20;;;18.00;99.90;;;;;;5007873;28;20234;-80
2022/07/28 08:07:05;;;;;;;6.93;1.25;;;18.60;1.00;;;;;;5007434;28;20192;-81
2022/07/28 08:09:32;;;;;;;3.60;1.00;;;17.80;1.00;;;;;;5015750;28;20183;-80
2022/07/28 08:11:57;;;;;;;9.60;1.15;;;17.70;1.00;;;;;;5006671;28;20685;-79
2022/07/28 08:14:23;;;;;;;23.38;2.22;;;17.80;1.00;;;;;;5009842;28;20186;-79
2022/07/28 08:16:48;;;;;;;3.30;0.85;;;18.60;99.90;;;;;;5009311;28;20265;-80
2022/07/28 08:19:15;;;;;;;3.08;1.20;;;18.30;1.00;;;;;;5006465;28;20731;-79
2022/07/28 08:21:41;;;;;;;9.00;1.23;;;18.70;99.90;;;;;;5019944;28;20304;-80
2022/07/28 08:24:07;;;;;;;4.20;1.10;;;18.60;99.90;;;;;;5005176;28;20195;-79
2022/07/28 08:26:33;;;;;;;11.25;1.42;;;18.50;99.90;;;;;;5005225;28;20194;-80
2022/07/28 08:28:58;;;;;;;6.15;1.23;;;18.40;99.90;;;;;;5006321;28;20596;-79
2022/07/28 08:31:24;;;;;;;3.55;0.90;;;18.60;68.40;;;;;;5006573;28;20261;-80
2022/07/28 08:33:51;;;;;;;10.63;1.30;;;19.10;1.00;;;;;;5005789;28;20214;-79
2022/07/28 08:36:16;;;;;;;13.05;2.00;;;18.40;11.20;;;;;;5004959;28;20543;-80
2022/07/28 08:38:42;;;;;;;10.85;1.50;;;18.20;99.90;;;;;;5006955;28;20234;-81
2022/07/28 08:41:15;;;;;;;5.38;1.00;;;18.40;99.90;;;;;;5005825;28;20678;-80
2022/07/28 08:43:42;;;;;;;4.40;1.35;;;18.30;56.40;;;;;;5012283;28;20184;-80
2022/07/28 08:46:08;;;;;;;3.67;0.77;;;19.00;99.90;;;;;;5004568;28;20712;-80
2022/07/28 08:48:36;;;;;;;35.28;3.15;;;18.40;99.90;;;;;;5005891;28;20184;-79
2022/07/28 08:51:08;;;;;;;17.50;1.83;;;18.70;98.80;;;;;;5013413;28;20207;-79
2022/07/28 08:53:36;;;;;;;10.13;1.45;;;18.70;40.70;;;;;;5005545;28;20183;-80
2022/07/28 08:56:06;;;;;;;5.93;1.25;;;18.90;17.70;;;;;;5006423;28;20199;-79
2022/07/28 08:58:34;;;;;;;9.98;1.38;;;19.80;1.00;;;;;;5013251;28;20247;-79
2022/07/28 09:01:01;;;;;;;7.57;1.02;;;19.00;1.00;;;;;;5007334;28;20206;-79
2022/07/28 09:03:28;;;;;;;11.77;1.25;;;19.50;1.00;;;;;;5005437;28;21057;-79
2022/07/28 09:05:55;;;;;;;18.73;2.20;;;19.30;1.00;;;;;;5006022;28;20984;-79
2022/07/28 09:08:21;;;;;;;3.13;0.82;;;19.20;1.00;;;;;;5015717;28;20211;-81
2022/07/28 09:10:47;;;;;;;10.77;1.38;;;18.70;1.00;;;;;;5005028;28;20664;-80
2022/07/28 09:13:14;;;;;;;9.32;1.30;;;19.00;1.00;;;;;;5012764;28;20245;-80
2022/07/28 09:15:41;;;;;;;2.67;0.80;;;19.20;1.00;;;;;;5007506;28;20236;-81
2022/07/28 09:18:06;;;;;;;1.80;0.88;;;19.50;1.00;;;;;;5007766;28;20190;-80
2022/07/28 09:20:35;;;;;;;14.65;1.50;;;19.60;1.00;;;;;;5005699;28;20184;-84
2022/07/28 09:23:05;;;;;;;12.40;2.15;;;19.70;1.00;;;;;;5006876;28;20168;-80
2022/07/28 09:25:32;;;;;;;28.40;3.38;;;19.80;1.00;;;;;;5004077;28;20180;-80
2022/07/28 09:28:12;;;;;;;2.17;0.80;;;19.80;1.00;;;;;;5004935;28;20182;-82
2022/07/28 09:30:43;;;;;;;4.65;1.08;;;19.60;1.00;;;;;;5004845;28;20187;-81
2022/07/28 09:33:21;;;;;;;2.10;0.90;;;19.60;1.00;;;;;;5006648;28;20680;-81
2022/07/28 09:35:46;;;;;;;3.30;0.93;;;19.40;1.00;;;;;;5004514;28;20304;-80
2022/07/28 09:38:13;;;;;;;5.65;0.90;;;19.50;1.00;;;;;;5005873;28;20661;-81
2022/07/28 09:40:39;;;;;;;2.47;0.93;;;20.00;1.00;;;;;;5005969;28;20282;-83
2022/07/28 09:43:05;;;;;;;7.40;1.50;;;19.50;1.00;;;;;;5005890;28;20172;-79
2022/07/28 09:45:31;;;;;;;2.70;1.10;;;19.50;1.00;;;;;;5007019;28;20271;-79
2022/07/28 09:48:13;;;;;;;4.03;0.80;;;19.40;1.00;;;;;;5005018;28;20183;-78
2022/07/28 09:50:40;;;;;;;7.40;1.10;;;19.80;1.00;;;;;;5004198;28;20195;-80
2022/07/28 09:53:26;;;;;;;5.90;1.20;;;20.40;1.00;;;;;;5004392;28;20245;-80
2022/07/28 09:55:58;;;;;;;3.45;1.15;;;20.20;1.00;;;;;;5004092;28;20234;-79
2022/07/28 09:58:24;;;;;;;4.70;1.10;;;20.30;1.00;;;;;;5003845;28;20207;-79
2022/07/28 10:00:50;;;;;;;3.30;1.00;;;20.50;1.00;;;;;;5012483;28;20732;-78
2022/07/28 10:03:41;;;;;;;3.42;1.20;;;20.60;1.00;;;;;;5008404;28;20178;-79
2022/07/28 10:06:13;;;;;;;2.28;0.85;;;20.40;1.00;;;;;;5010887;28;20642;-80
2022/07/28 10:08:42;;;;;;;2.95;1.00;;;20.30;1.00;;;;;;5010952;28;20199;-81
2022/07/28 10:11:08;;;;;;;1.75;0.95;;;21.00;1.00;;;;;;5019307;28;20634;-81
2022/07/28 10:13:34;;;;;;;2.80;1.00;;;20.20;1.00;;;;;;5009147;28;20357;-80
2022/07/28 10:16:10;;;;;;;2.72;1.00;;;21.00;1.00;;;;;;5009988;28;20199;-80
2022/07/28 10:18:37;;;;;;;3.05;0.90;;;19.70;1.00;;;;;;5009586;28;20182;-81
2022/07/28 10:21:08;;;;;;;1.80;1.00;;;20.50;1.00;;;;;;5007703;28;20281;-79
2022/07/28 10:23:37;;;;;;;3.17;1.15;;;20.10;1.00;;;;;;5016827;28;20188;-80
2022/07/28 10:26:09;;;;;;;3.53;1.13;;;20.20;1.00;;;;;;5008355;28;20263;-79
2022/07/28 10:28:37;;;;;;;15.63;1.95;;;20.20;1.00;;;;;;5007614;28;20539;-80
2022/07/28 10:31:06;;;;;;;19.58;3.03;;;20.20;1.00;;;;;;5006660;28;20199;-79
2022/07/28 10:33:33;;;;;;;17.02;1.92;;;20.50;1.00;;;;;;5007548;28;20218;-80
2022/07/28 10:36:01;;;;;;;11.82;1.90;;;20.80;1.00;;;;;;5015086;28;20259;-79
2022/07/28 10:38:33;;;;;;;4.03;0.93;;;20.90;1.00;;;;;;5007135;28;20184;-80
2022/07/28 10:41:02;;;;;;;14.40;1.95;;;20.50;1.00;;;;;;5005734;28;21701;-80
2022/07/28 10:43:29;;;;;;;2.63;0.70;;;20.30;1.00;;;;;;5007404;28;20237;-79
2022/07/28 10:45:56;;;;;;;2.67;0.90;;;20.30;1.00;;;;;;5007053;28;20229;-80
2022/07/28 10:48:22;;;;;;;3.53;0.93;;;20.40;1.00;;;;;;5006738;28;20188;-80
2022/07/28 10:50:48;;;;;;;5.05;1.10;;;20.60;1.00;;;;;;5007121;28;20678;-79
2022/07/28 10:53:32;;;;;;;5.53;1.33;;;21.00;1.00;;;;;;5007704;28;20183;-80
2022/07/28 10:56:03;;;;;;;27.35;2.70;;;21.00;1.00;;;;;;5005717;28;20286;-80
2022/07/28 10:58:48;;;;;;;6.80;1.35;;;21.40;1.00;;;;;;5012670;28;20199;-80
2022/07/28 11:01:37;;;;;;;2.80;1.08;;;21.40;99.90;;;;;;5005554;28;20246;-79
2022/07/28 11:04:03;;;;;;;3.63;1.02;;;21.10;99.90;;;;;;5007194;28;20182;-80
2022/07/28 11:06:29;;;;;;;4.00;1.00;;;21.30;99.90;;;;;;5006139;28;20183;-79
2022/07/28 11:08:58;;;;;;;3.67;0.80;;;20.70;99.90;;;;;;5006770;28;20187;-79
2022/07/28 11:11:42;;;;;;;2.47;0.88;;;20.70;99.90;;;;;;5008607;28;20206;-80
2022/07/28 11:14:24;;;;;;;7.85;1.10;;;21.10;99.90;;;;;;5006453;28;20613;-81
2022/07/28 11:17:05;;;;;;;9.02;1.35;;;21.10;99.90;;;;;;5006845;28;20218;-80
2022/07/28 11:19:50;;;;;;;3.20;1.13;;;21.00;99.90;;;;;;5007725;28;20547;-80
2022/07/28 11:22:23;;;;;;;7.07;0.93;;;21.20;99.90;;;;;;5007326;28;20897;-79
2022/07/28 11:25:09;;;;;;;9.88;1.50;;;21.10;99.90;;;;;;5005866;28;20266;-79
2022/07/28 11:27:40;;;;;;;3.22;1.08;;;21.50;99.90;;;;;;5008812;28;20237;-79
2022/07/28 11:30:34;;;;;;;3.30;0.90;;;21.70;99.90;;;;;;5010374;28;20386;-78
2022/07/28 11:33:01;;;;;;;1.98;0.73;;;21.40;99.90;;;;;;5014095;28;20285;-81
2022/07/28 11:35:28;;;;;;;5.78;1.27;;;21.40;99.90;;;;;;5005653;28;20267;-79
2022/07/28 11:38:00;;;;;;;11.95;1.77;;;21.90;99.90;;;;;;5006141;28;20290;-79
2022/07/28 11:40:33;;;;;;;3.47;1.08;;;21.90;99.90;;;;;;5006669;28;20180;-81
2022/07/28 11:43:23;;;;;;;3.33;1.10;;;22.00;99.90;;;;;;5008691;28;20293;-83
2022/07/28 11:46:09;;;;;;;2.67;1.38;;;22.00;99.90;;;;;;5032197;28;20202;-81
2022/07/28 11:48:35;;;;;;;2.55;1.20;;;22.10;99.90;;;;;;4998905;28;20199;-85
2022/07/28 11:51:04;;;;;;;3.15;1.02;;;22.10;99.90;;;;;;5015853;28;20211;-84
2022/07/28 11:53:35;;;;;;;3.55;1.00;;;22.20;99.90;;;;;;5021346;28;20241;-83
2022/07/28 11:56:06;;;;;;;2.47;1.05;;;22.40;99.90;;;;;;5020046;28;20650;-84
2022/07/28 11:58:33;;;;;;;3.17;0.90;;;23.20;99.90;;;;;;5017781;28;20194;-85
2022/07/28 12:01:19;;;;;;;2.97;0.98;;;22.90;99.90;;;;;;5016148;28;20278;-83
2022/07/28 12:03:50;;;;;;;3.45;1.00;;;22.70;99.90;;;;;;5017656;28;20183;-83
2022/07/28 12:06:17;;;;;;;2.90;0.90;;;22.60;99.90;;;;;;5017242;28;20233;-87
2022/07/28 12:08:50;;;;;;;2.92;1.00;;;23.30;99.90;;;;;;5013553;28;20183;-84
2022/07/28 12:11:16;;;;;;;2.15;0.80;;;22.30;99.90;;;;;;5014312;28;20660;-83
2022/07/28 12:13:42;;;;;;;3.25;1.00;;;22.20;99.90;;;;;;5019535;28;20267;-84
2022/07/28 12:16:08;;;;;;;4.43;1.13;;;22.20;99.90;;;;;;5020178;28;20250;-84
2022/07/28 12:19:13;;;;;;;2.17;1.02;;;22.60;99.90;;;;;;5029027;28;20242;-83
2022/07/28 12:21:59;;;;;;;6.07;1.17;;;22.20;99.90;;;;;;5016150;28;20204;-84
2022/07/28 12:24:30;;;;;;;5.35;1.48;;;22.30;99.90;;;;;;5017912;28;20186;-83
2022/07/28 12:26:56;;;;;;;22.27;2.25;;;22.60;99.90;;;;;;5020596;28;20176;-85
2022/07/28 12:29:23;;;;;;;11.40;1.73;;;22.70;99.90;;;;;;5020362;28;20190;-83
2022/07/28 12:31:57;;;;;;;14.73;2.92;;;22.90;99.90;;;;;;5002930;28;20203;-84
2022/07/28 12:34:25;;;;;;;14.35;1.60;;;22.90;99.90;;;;;;5019469;28;20203;-84
2022/07/28 12:36:55;;;;;;;2.78;1.10;;;22.70;99.90;;;;;;5002938;28;20221;-85
2022/07/28 12:39:24;;;;;;;4.88;1.00;;;22.90;99.90;;;;;;5015549;28;20171;-85
2022/07/28 12:41:59;;;;;;;11.40;1.63;;;22.40;99.90;;;;;;5013094;28;20235;-82
2022/07/28 12:44:40;;;;;;;6.63;1.85;;;22.20;99.90;;;;;;5015376;28;20187;-82
2022/07/28 12:47:07;;;;;;;2.05;1.00;;;22.30;99.90;;;;;;5006549;28;20294;-85
2022/07/28 12:49:35;;;;;;;39.08;3.30;;;22.50;99.90;;;;;;5011039;28;20184;-83
2022/07/28 12:52:18;;;;;;;13.27;1.27;;;22.90;99.90;;;;;;4996741;28;20222;-85
2022/07/28 12:54:44;;;;;;;4.00;0.90;;;22.90;99.90;;;;;;5017806;28;20183;-84
2022/07/28 12:57:10;;;;;;;2.15;1.20;;;22.60;99.90;;;;;;5019893;28;20254;-83
2022/07/28 12:59:37;;;;;;;2.00;0.77;;;22.50;99.90;;;;;;5019497;28;20230;-85
2022/07/28 13:02:35;;;;;;;2.40;0.85;;;22.30;99.90;;;;;;5000995;28;20225;-84
2022/07/28 13:05:02;;;;;;;2.13;0.88;;;22.60;99.90;;;;;;5018757;28;20218;-82
2022/07/28 13:07:30;;;;;;;4.72;1.05;;;22.50;99.90;;;;;;5018844;28;20199;-80